sensor_id;sensor_type;location;lat;lon;timestamp;pressure;altitude;pressure_sealevel;temperature;humidity
62524;BME280;53689;56.878;60.672;2023-01-25T00:00:08;98725.06;;;22.75;20.24
62524;BME280;53689;56.878;60.672;2023-01-25T00:02:36;98731.28;;;22.75;21.06
62524;BME280;53689;56.878;60.672;2023-01-25T00:05:06;98733.97;;;22.75;20.44
62524;BME280;53689;56.878;60.672;2023-01-25T00:07:34;98730.47;;;22.75;20.57
62524;BME280;53689;56.878;60.672;2023-01-25T00:10:01;98746.66;;;22.75;20.46
62524;BME280;53689;56.878;60.672;2023-01-25T00:12:29;98747.47;;;22.75;20.16
62524;BME280;53689;56.878;60.672;2023-01-25T00:14:57;98729.25;;;22.77;20.90
62524;BME280;53689;56.878;60.672;2023-01-25T00:17:25;98734.38;;;22.72;20.62
62524;BME280;53689;56.878;60.672;2023-01-25T00:19:52;98733.97;;;22.75;21.20
62524;BME280;53689;56.878;60.672;2023-01-25T00:22:21;98741.25;;;22.75;21.22
62524;BME280;53689;56.878;60.672;2023-01-25T00:24:49;98738.28;;;22.69;20.66
62524;BME280;53689;56.878;60.672;2023-01-25T00:27:17;98739.38;;;22.75;20.67
62524;BME280;53689;56.878;60.672;2023-01-25T00:29:45;98724.63;;;22.71;21.16
62524;BME280;53689;56.878;60.672;2023-01-25T00:32:41;98726.47;;;22.70;20.85
62524;BME280;53689;56.878;60.672;2023-01-25T00:35:14;98726.56;;;22.77;20.68
62524;BME280;53689;56.878;60.672;2023-01-25T00:37:46;98722.56;;;22.73;20.97
62524;BME280;53689;56.878;60.672;2023-01-25T00:40:14;98720.88;;;22.72;21.46
62524;BME280;53689;56.878;60.672;2023-01-25T00:42:41;98720.31;;;22.77;21.59
62524;BME280;53689;56.878;60.672;2023-01-25T00:45:11;98705.38;;;22.81;21.24
62524;BME280;53689;56.878;60.672;2023-01-25T00:47:38;98707.78;;;22.69;20.78
62524;BME280;53689;56.878;60.672;2023-01-25T00:50:07;98708.91;;;22.81;21.20
62524;BME280;53689;56.878;60.672;2023-01-25T00:52:36;98707.25;;;22.80;21.56
62524;BME280;53689;56.878;60.672;2023-01-25T00:55:06;98700.19;;;22.79;21.57
62524;BME280;53689;56.878;60.672;2023-01-25T00:57:35;98700.19;;;22.79;21.38
62524;BME280;53689;56.878;60.672;2023-01-25T01:00:04;98703.78;;;22.65;22.21
62524;BME280;53689;56.878;60.672;2023-01-25T01:02:32;98697.88;;;22.76;20.89
62524;BME280;53689;56.878;60.672;2023-01-25T01:04:59;98707.38;;;22.72;20.61
62524;BME280;53689;56.878;60.672;2023-01-25T01:07:30;98709.06;;;22.73;21.44
62524;BME280;53689;56.878;60.672;2023-01-25T01:09:58;98701.16;;;22.71;20.02
62524;BME280;53689;56.878;60.672;2023-01-25T01:12:27;98698.53;;;22.78;20.92
62524;BME280;53689;56.878;60.672;2023-01-25T01:14:54;98702.00;;;22.72;20.97
62524;BME280;53689;56.878;60.672;2023-01-25T01:17:22;98706.31;;;22.66;21.18
62524;BME280;53689;56.878;60.672;2023-01-25T01:19:50;98703.66;;;22.73;21.06
62524;BME280;53689;56.878;60.672;2023-01-25T01:22:17;98714.63;;;22.71;20.79
62524;BME280;53689;56.878;60.672;2023-01-25T01:24:47;98700.16;;;22.72;20.97
62524;BME280;53689;56.878;60.672;2023-01-25T01:27:14;98705.78;;;22.78;20.42
62524;BME280;53689;56.878;60.672;2023-01-25T01:29:43;98706.94;;;22.68;20.34
62524;BME280;53689;56.878;60.672;2023-01-25T01:32:11;98703.66;;;22.73;20.29
62524;BME280;53689;56.878;60.672;2023-01-25T01:34:39;98696.84;;;22.77;20.16
62524;BME280;53689;56.878;60.672;2023-01-25T01:37:06;98692.38;;;22.63;21.11
62524;BME280;53689;56.878;60.672;2023-01-25T01:39:34;98687.88;;;22.70;20.24
62524;BME280;53689;56.878;60.672;2023-01-25T01:42:01;98692.09;;;22.79;20.76
62524;BME280;53689;56.878;60.672;2023-01-25T01:44:48;98688.50;;;22.72;21.03
62524;BME280;53689;56.878;60.672;2023-01-25T01:47:21;98691.19;;;22.72;21.27
62524;BME280;53689;56.878;60.672;2023-01-25T01:49:57;98683.09;;;22.72;20.49
62524;BME280;53689;56.878;60.672;2023-01-25T01:52:31;98685.41;;;22.75;19.72
62524;BME280;53689;56.878;60.672;2023-01-25T01:55:04;98690.44;;;22.78;20.43
62524;BME280;53689;56.878;60.672;2023-01-25T01:57:38;98687.22;;;22.68;19.86
62524;BME280;53689;56.878;60.672;2023-01-25T02:00:14;98683.72;;;22.74;20.22
62524;BME280;53689;56.878;60.672;2023-01-25T02:02:44;98676.66;;;22.73;20.61
62524;BME280;53689;56.878;60.672;2023-01-25T02:05:18;98679.78;;;22.70;21.29
62524;BME280;53689;56.878;60.672;2023-01-25T02:07:47;98673.97;;;22.73;20.70
62524;BME280;53689;56.878;60.672;2023-01-25T02:10:19;98678.34;;;22.74;20.96
62524;BME280;53689;56.878;60.672;2023-01-25T02:12:50;98686.06;;;22.77;20.71
62524;BME280;53689;56.878;60.672;2023-01-25T02:15:20;98675.25;;;22.77;21.08
62524;BME280;53689;56.878;60.672;2023-01-25T02:17:49;98672.34;;;22.79;20.22
62524;BME280;53689;56.878;60.672;2023-01-25T02:20:24;98679.38;;;22.73;20.43
62524;BME280;53689;56.878;60.672;2023-01-25T02:22:59;98672.16;;;22.80;21.05
62524;BME280;53689;56.878;60.672;2023-01-25T02:25:30;98680.59;;;22.70;21.60
62524;BME280;53689;56.878;60.672;2023-01-25T02:28:03;98680.41;;;22.72;21.13
62524;BME280;53689;56.878;60.672;2023-01-25T02:30:33;98677.84;;;22.64;20.97
62524;BME280;53689;56.878;60.672;2023-01-25T02:33:00;98678.34;;;22.74;21.48
62524;BME280;53689;56.878;60.672;2023-01-25T02:35:41;98672.03;;;22.67;20.70
62524;BME280;53689;56.878;60.672;2023-01-25T02:38:11;98667.31;;;22.69;20.81
62524;BME280;53689;56.878;60.672;2023-01-25T02:40:44;98665.38;;;22.63;21.21
62524;BME280;53689;56.878;60.672;2023-01-25T02:43:16;98664.22;;;22.72;20.89
62524;BME280;53689;56.878;60.672;2023-01-25T02:45:45;98665.38;;;22.63;20.86
62524;BME280;53689;56.878;60.672;2023-01-25T02:48:14;98669.94;;;22.62;20.70
62524;BME280;53689;56.878;60.672;2023-01-25T02:50:50;98657.28;;;22.63;21.04
62524;BME280;53689;56.878;60.672;2023-01-25T02:53:17;98653.16;;;22.67;20.62
62524;BME280;53689;56.878;60.672;2023-01-25T02:55:45;98655.84;;;22.67;20.72
62524;BME280;53689;56.878;60.672;2023-01-25T02:58:13;98656.44;;;22.62;20.45
62524;BME280;53689;56.878;60.672;2023-01-25T03:00:41;98655.84;;;22.67;21.08
62524;BME280;53689;56.878;60.672;2023-01-25T03:03:08;98662.09;;;22.67;20.88
62524;BME280;53689;56.878;60.672;2023-01-25T03:05:36;98658.53;;;22.67;20.67
62524;BME280;53689;56.878;60.672;2023-01-25T03:08:05;98669.56;;;22.65;21.06
62524;BME280;53689;56.878;60.672;2023-01-25T03:10:33;98671.13;;;22.53;20.19
62524;BME280;53689;56.878;60.672;2023-01-25T03:13:01;98672.13;;;22.52;21.15
62524;BME280;53689;56.878;60.672;2023-01-25T03:15:29;98679.91;;;22.62;21.08
62524;BME280;53689;56.878;60.672;2023-01-25T03:17:56;98677.97;;;22.55;20.23
62524;BME280;53689;56.878;60.672;2023-01-25T03:20:24;98672.84;;;22.61;20.75
62524;BME280;53689;56.878;60.672;2023-01-25T03:22:51;98673.91;;;22.66;20.83
62524;BME280;53689;56.878;60.672;2023-01-25T03:25:20;98683.09;;;22.72;19.86
62524;BME280;53689;56.878;60.672;2023-01-25T03:27:58;98675.53;;;22.61;20.68
62524;BME280;53689;56.878;60.672;2023-01-25T03:30:26;98675.59;;;22.67;20.58
62524;BME280;53689;56.878;60.672;2023-01-25T03:32:54;98672.50;;;22.70;19.91
62524;BME280;53689;56.878;60.672;2023-01-25T03:35:22;98675.44;;;22.76;20.49
62524;BME280;53689;56.878;60.672;2023-01-25T03:37:50;98682.69;;;22.75;21.02
62524;BME280;53689;56.878;60.672;2023-01-25T03:40:19;98673.34;;;22.71;21.49
62524;BME280;53689;56.878;60.672;2023-01-25T03:42:49;98682.66;;;22.68;21.59
62524;BME280;53689;56.878;60.672;2023-01-25T03:45:17;98681.03;;;22.74;21.38
62524;BME280;53689;56.878;60.672;2023-01-25T03:47:44;98681.97;;;22.59;21.18
62524;BME280;53689;56.878;60.672;2023-01-25T03:50:13;98684.94;;;22.71;21.17
62524;BME280;53689;56.878;60.672;2023-01-25T03:52:43;98697.00;;;22.69;21.43
62524;BME280;53689;56.878;60.672;2023-01-25T03:55:11;98698.22;;;22.66;21.61
62524;BME280;53689;56.878;60.672;2023-01-25T03:57:42;98704.44;;;22.67;21.46
62524;BME280;53689;56.878;60.672;2023-01-25T04:00:11;98700.50;;;22.69;21.00
62524;BME280;53689;56.878;60.672;2023-01-25T04:02:44;98706.13;;;22.68;21.20
62524;BME280;53689;56.878;60.672;2023-01-25T04:05:16;98705.72;;;22.71;21.34
62524;BME280;53689;56.878;60.672;2023-01-25T04:07:44;98709.91;;;22.73;20.89
62524;BME280;53689;56.878;60.672;2023-01-25T04:10:13;98708.59;;;22.69;20.53
62524;BME280;53689;56.878;60.672;2023-01-25T04:12:46;98709.06;;;22.73;21.15
62524;BME280;53689;56.878;60.672;2023-01-25T04:15:14;98701.34;;;22.70;21.30
62524;BME280;53689;56.878;60.672;2023-01-25T04:17:41;98705.28;;;22.67;21.31
62524;BME280;53689;56.878;60.672;2023-01-25T04:20:20;98710.28;;;22.70;20.75
62524;BME280;53689;56.878;60.672;2023-01-25T04:22:48;98712.00;;;22.56;20.17
62524;BME280;53689;56.878;60.672;2023-01-25T04:25:18;98709.59;;;22.62;21.25
62524;BME280;53689;56.878;60.672;2023-01-25T04:27:53;98710.84;;;22.66;21.68
62524;BME280;53689;56.878;60.672;2023-01-25T04:30:21;98705.41;;;22.59;19.12
62524;BME280;53689;56.878;60.672;2023-01-25T04:32:49;98708.44;;;22.49;19.54
62524;BME280;53689;56.878;60.672;2023-01-25T04:35:24;98706.75;;;22.48;17.22
62524;BME280;53689;56.878;60.672;2023-01-25T04:37:53;98695.09;;;22.48;17.99
62524;BME280;53689;56.878;60.672;2023-01-25T04:40:23;98705.06;;;22.47;17.71
62524;BME280;53689;56.878;60.672;2023-01-25T04:42:50;98723.13;;;22.47;17.23
62524;BME280;53689;56.878;60.672;2023-01-25T04:45:20;98728.34;;;22.48;18.69
62524;BME280;53689;56.878;60.672;2023-01-25T04:47:48;98723.38;;;22.52;18.36
62524;BME280;53689;56.878;60.672;2023-01-25T04:50:16;98723.06;;;22.40;17.91
62524;BME280;53689;56.878;60.672;2023-01-25T04:52:44;98733.28;;;22.44;19.08
62524;BME280;53689;56.878;60.672;2023-01-25T04:55:12;98730.72;;;22.58;18.07
62524;BME280;53689;56.878;60.672;2023-01-25T04:57:42;98735.16;;;22.66;17.37
62524;BME280;53689;56.878;60.672;2023-01-25T05:00:11;98727.44;;;22.63;17.25
62524;BME280;53689;56.878;60.672;2023-01-25T05:02:41;98729.75;;;22.66;18.61
62524;BME280;53689;56.878;60.672;2023-01-25T05:05:09;98737.22;;;22.64;17.42
62524;BME280;53689;56.878;60.672;2023-01-25T05:07:37;98737.53;;;22.54;17.42
62524;BME280;53689;56.878;60.672;2023-01-25T05:10:06;98728.41;;;22.55;17.72
62524;BME280;53689;56.878;60.672;2023-01-25T05:12:39;98741.69;;;22.56;17.40
62524;BME280;53689;56.878;60.672;2023-01-25T05:15:07;98743.00;;;22.61;17.40
62524;BME280;53689;56.878;60.672;2023-01-25T05:17:35;98754.03;;;22.66;17.65
62524;BME280;53689;56.878;60.672;2023-01-25T05:20:04;98757.00;;;22.49;17.79
62524;BME280;53689;56.878;60.672;2023-01-25T05:22:31;98759.31;;;22.52;17.93
62524;BME280;53689;56.878;60.672;2023-01-25T05:25:00;98764.41;;;22.47;17.10
62524;BME280;53689;56.878;60.672;2023-01-25T05:27:28;98768.25;;;22.53;17.61
62524;BME280;53689;56.878;60.672;2023-01-25T05:29:56;98759.72;;;22.49;17.75
62524;BME280;53689;56.878;60.672;2023-01-25T05:32:36;98760.34;;;22.51;17.67
62524;BME280;53689;56.878;60.672;2023-01-25T05:35:05;98758.28;;;22.53;18.23
62524;BME280;53689;56.878;60.672;2023-01-25T05:37:34;98753.63;;;22.47;17.74
62524;BME280;53689;56.878;60.672;2023-01-25T05:40:06;98756.81;;;22.51;17.80
62524;BME280;53689;56.878;60.672;2023-01-25T05:42:37;98758.28;;;22.53;18.10
62524;BME280;53689;56.878;60.672;2023-01-25T05:45:12;98770.28;;;22.51;17.49
62524;BME280;53689;56.878;60.672;2023-01-25T05:47:40;98760.34;;;22.51;17.51
62524;BME280;53689;56.878;60.672;2023-01-25T05:50:10;98757.59;;;22.29;17.78
62524;BME280;53689;56.878;60.672;2023-01-25T05:52:50;98759.31;;;22.52;17.93
62524;BME280;53689;56.878;60.672;2023-01-25T05:55:17;98754.09;;;22.51;17.55
62524;BME280;53689;56.878;60.672;2023-01-25T05:57:46;98762.00;;;22.52;17.38
62524;BME280;53689;56.878;60.672;2023-01-25T06:00:14;98758.28;;;22.53;17.86
62524;BME280;53689;56.878;60.672;2023-01-25T06:02:42;98764.31;;;22.55;17.30
62524;BME280;53689;56.878;60.672;2023-01-25T06:05:16;98747.09;;;22.56;17.50
62524;BME280;53689;56.878;60.672;2023-01-25T06:07:44;98760.81;;;22.55;17.75
62524;BME280;53689;56.878;60.672;2023-01-25T06:10:13;98769.94;;;22.54;17.46
62524;BME280;53689;56.878;60.672;2023-01-25T06:12:42;98775.78;;;22.57;17.92
62524;BME280;53689;56.878;60.672;2023-01-25T06:15:10;98757.88;;;22.56;18.03
62524;BME280;53689;56.878;60.672;2023-01-25T06:17:38;98759.59;;;22.57;17.30
62524;BME280;53689;56.878;60.672;2023-01-25T06:20:18;98761.63;;;22.55;18.06
62524;BME280;53689;56.878;60.672;2023-01-25T06:23:05;98764.06;;;22.50;18.09
62524;BME280;53689;56.878;60.672;2023-01-25T06:25:32;98760.41;;;22.58;18.18
62524;BME280;53689;56.878;60.672;2023-01-25T06:28:00;98768.31;;;22.59;17.50
62524;BME280;53689;56.878;60.672;2023-01-25T06:30:27;98770.38;;;22.57;17.69
62524;BME280;53689;56.878;60.672;2023-01-25T06:32:57;98765.16;;;22.56;17.30
62524;BME280;53689;56.878;60.672;2023-01-25T06:35:26;98768.91;;;22.55;17.66
62524;BME280;53689;56.878;60.672;2023-01-25T06:37:54;98768.78;;;22.63;18.50
62524;BME280;53689;56.878;60.672;2023-01-25T06:40:21;98774.47;;;22.53;17.62
62524;BME280;53689;56.878;60.672;2023-01-25T06:42:49;98777.63;;;22.57;17.91
62524;BME280;53689;56.878;60.672;2023-01-25T06:45:17;98782.38;;;22.55;17.63
62524;BME280;53689;56.878;60.672;2023-01-25T06:47:46;98782.38;;;22.55;17.71
62524;BME280;53689;56.878;60.672;2023-01-25T06:50:15;98783.88;;;22.57;18.05
62524;BME280;53689;56.878;60.672;2023-01-25T06:52:50;98787.84;;;22.62;17.75
62524;BME280;53689;56.878;60.672;2023-01-25T06:55:18;98789.47;;;22.56;18.22
62524;BME280;53689;56.878;60.672;2023-01-25T06:57:46;98801.63;;;22.52;17.96
62524;BME280;53689;56.878;60.672;2023-01-25T07:00:15;98796.34;;;22.58;18.13
62524;BME280;53689;56.878;60.672;2023-01-25T07:02:43;98799.03;;;22.58;17.98
62524;BME280;53689;56.878;60.672;2023-01-25T07:05:11;98796.44;;;22.50;18.11
62524;BME280;53689;56.878;60.672;2023-01-25T07:07:39;98794.00;;;22.55;17.81
62524;BME280;53689;56.878;60.672;2023-01-25T07:10:09;98799.84;;;22.59;18.11
62524;BME280;53689;56.878;60.672;2023-01-25T07:12:36;98809.84;;;22.58;17.67
62524;BME280;53689;56.878;60.672;2023-01-25T07:15:06;98810.72;;;22.66;17.72
62524;BME280;53689;56.878;60.672;2023-01-25T07:17:34;98804.22;;;22.60;17.66
62524;BME280;53689;56.878;60.672;2023-01-25T07:20:02;98800.50;;;22.61;17.97
62524;BME280;53689;56.878;60.672;2023-01-25T07:22:30;98810.06;;;22.64;17.71
62524;BME280;53689;56.878;60.672;2023-01-25T07:24:57;98805.06;;;22.61;17.98
62524;BME280;53689;56.878;60.672;2023-01-25T07:27:27;98810.00;;;22.57;18.01
62524;BME280;53689;56.878;60.672;2023-01-25T07:29:54;98815.34;;;22.50;17.68
62524;BME280;53689;56.878;60.672;2023-01-25T07:32:22;98819.78;;;22.58;18.10
62524;BME280;53689;56.878;60.672;2023-01-25T07:34:49;98803.22;;;21.79;18.61
62524;BME280;53689;56.878;60.672;2023-01-25T07:37:17;98800.19;;;21.29;17.87
62524;BME280;53689;56.878;60.672;2023-01-25T07:39:44;98798.75;;;20.71;17.61
62524;BME280;53689;56.878;60.672;2023-01-25T07:42:12;98803.09;;;20.72;17.58
62524;BME280;53689;56.878;60.672;2023-01-25T07:44:50;98794.97;;;20.57;16.24
62524;BME280;53689;56.878;60.672;2023-01-25T07:47:17;98790.88;;;20.70;17.67
62524;BME280;53689;56.878;60.672;2023-01-25T07:49:45;98781.47;;;21.12;16.32
62524;BME280;53689;56.878;60.672;2023-01-25T07:52:13;98771.81;;;21.18;16.01
62524;BME280;53689;56.878;60.672;2023-01-25T07:54:40;98776.16;;;21.04;16.06
62524;BME280;53689;56.878;60.672;2023-01-25T07:57:07;98778.06;;;21.18;15.90
62524;BME280;53689;56.878;60.672;2023-01-25T07:59:35;98776.81;;;21.44;16.32
62524;BME280;53689;56.878;60.672;2023-01-25T08:02:04;98769.84;;;21.65;16.54
62524;BME280;53689;56.878;60.672;2023-01-25T08:04:32;98776.25;;;21.64;16.34
62524;BME280;53689;56.878;60.672;2023-01-25T08:06:59;98783.03;;;21.75;16.67
62524;BME280;53689;56.878;60.672;2023-01-25T08:09:27;98790.97;;;21.76;17.33
62524;BME280;53689;56.878;60.672;2023-01-25T08:11:54;98787.59;;;21.89;16.60
62524;BME280;53689;56.878;60.672;2023-01-25T08:14:22;98779.63;;;21.81;16.49
62524;BME280;53689;56.878;60.672;2023-01-25T08:16:49;98776.19;;;21.87;17.18
62524;BME280;53689;56.878;60.672;2023-01-25T08:19:18;98779.91;;;21.86;16.98
62524;BME280;53689;56.878;60.672;2023-01-25T08:21:46;98791.25;;;20.90;18.89
62524;BME280;53689;56.878;60.672;2023-01-25T08:24:14;98787.81;;;20.73;17.55
62524;BME280;53689;56.878;60.672;2023-01-25T08:26:43;98794.22;;;21.72;17.74
62524;BME280;53689;56.878;60.672;2023-01-25T08:29:11;98785.47;;;21.85;16.68
62524;BME280;53689;56.878;60.672;2023-01-25T08:31:41;98791.34;;;21.73;16.51
62524;BME280;53689;56.878;60.672;2023-01-25T08:34:09;98781.75;;;21.71;16.38
62524;BME280;53689;56.878;60.672;2023-01-25T08:36:38;98784.53;;;21.93;17.00
62524;BME280;53689;56.878;60.672;2023-01-25T08:39:07;98776.81;;;21.89;16.55
62524;BME280;53689;56.878;60.672;2023-01-25T08:41:34;98778.31;;;21.92;16.67
62524;BME280;53689;56.878;60.672;2023-01-25T08:44:02;98772.47;;;21.88;16.90
62524;BME280;53689;56.878;60.672;2023-01-25T08:46:31;98775.44;;;21.79;17.46
62524;BME280;53689;56.878;60.672;2023-01-25T08:48:59;98770.41;;;21.90;18.19
62524;BME280;53689;56.878;60.672;2023-01-25T08:51:28;98776.66;;;21.91;17.47
62524;BME280;53689;56.878;60.672;2023-01-25T08:54:01;98763.59;;;21.95;18.84
62524;BME280;53689;56.878;60.672;2023-01-25T08:56:28;98762.50;;;21.89;17.60
62524;BME280;53689;56.878;60.672;2023-01-25T08:58:56;98761.13;;;21.93;17.60
62524;BME280;53689;56.878;60.672;2023-01-25T09:01:23;98763.88;;;22.00;18.38
62524;BME280;53689;56.878;60.672;2023-01-25T09:03:51;98755.22;;;22.04;18.81
62524;BME280;53689;56.878;60.672;2023-01-25T09:06:20;98752.66;;;21.96;18.37
62524;BME280;53689;56.878;60.672;2023-01-25T09:08:47;98758.31;;;22.01;18.08
62524;BME280;53689;56.878;60.672;2023-01-25T09:11:18;98747.16;;;22.04;18.04
62524;BME280;53689;56.878;60.672;2023-01-25T09:13:46;98745.09;;;22.07;18.22
62524;BME280;53689;56.878;60.672;2023-01-25T09:16:16;98740.25;;;22.02;18.15
62524;BME280;53689;56.878;60.672;2023-01-25T09:18:44;98741.66;;;22.13;17.76
62524;BME280;53689;56.878;60.672;2023-01-25T09:21:13;98732.91;;;22.11;17.94
62524;BME280;53689;56.878;60.672;2023-01-25T09:23:41;98724.25;;;22.15;17.43
62524;BME280;53689;56.878;60.672;2023-01-25T09:26:19;98731.31;;;22.16;20.11
62524;BME280;53689;56.878;60.672;2023-01-25T09:28:48;98722.38;;;22.38;19.90
62524;BME280;53689;56.878;60.672;2023-01-25T09:31:16;98720.66;;;22.30;19.56
62524;BME280;53689;56.878;60.672;2023-01-25T09:34:13;98712.75;;;22.28;18.33
62524;BME280;53689;56.878;60.672;2023-01-25T09:36:41;98712.84;;;22.35;18.69
62524;BME280;53689;56.878;60.672;2023-01-25T09:39:09;98702.75;;;22.44;18.74
62524;BME280;53689;56.878;60.672;2023-01-25T09:47:38;98702.50;;;22.39;19.14
62524;BME280;53689;56.878;60.672;2023-01-25T09:50:34;98691.97;;;22.44;19.61
62524;BME280;53689;56.878;60.672;2023-01-25T09:53:19;98694.66;;;22.44;18.04
62524;BME280;53689;56.878;60.672;2023-01-25T09:55:49;98697.13;;;22.39;19.57
62524;BME280;53689;56.878;60.672;2023-01-25T09:58:23;98688.63;;;22.42;19.50
62524;BME280;53689;56.878;60.672;2023-01-25T10:00:54;98676.97;;;22.41;19.61
62524;BME280;53689;56.878;60.672;2023-01-25T10:03:32;98668.53;;;22.44;19.54
62524;BME280;53689;56.878;60.672;2023-01-25T10:06:04;98678.28;;;22.45;19.02
62524;BME280;53689;56.878;60.672;2023-01-25T10:08:35;98676.41;;;22.46;19.01
62524;BME280;53689;56.878;60.672;2023-01-25T10:11:15;98677.66;;;22.43;17.93
62524;BME280;53689;56.878;60.672;2023-01-25T10:13:47;98685.16;;;22.48;19.83
62524;BME280;53689;56.878;60.672;2023-01-25T10:16:18;98687.78;;;22.41;19.45
62524;BME280;53689;56.878;60.672;2023-01-25T10:18:58;98694.66;;;22.44;19.81
62524;BME280;53689;56.878;60.672;2023-01-25T10:21:34;98702.56;;;22.45;19.14
62524;BME280;53689;56.878;60.672;2023-01-25T10:24:18;98702.03;;;22.50;19.52
62524;BME280;53689;56.878;60.672;2023-01-25T10:26:54;98698.00;;;22.46;19.28
62524;BME280;53689;56.878;60.672;2023-01-25T10:29:26;98691.50;;;22.40;18.65
62524;BME280;53689;56.878;60.672;2023-01-25T10:31:54;98692.94;;;22.58;19.66
62524;BME280;53689;56.878;60.672;2023-01-25T10:34:28;98691.97;;;22.44;20.17
62524;BME280;53689;56.878;60.672;2023-01-25T10:37:00;98690.75;;;22.47;19.66
62524;BME280;53689;56.878;60.672;2023-01-25T10:39:29;98704.41;;;22.45;18.83
62524;BME280;53689;56.878;60.672;2023-01-25T10:42:01;98693.13;;;22.56;19.78
62524;BME280;53689;56.878;60.672;2023-01-25T10:44:33;98686.88;;;22.49;19.75
62524;BME280;53689;56.878;60.672;2023-01-25T10:47:03;98682.09;;;22.51;19.04
62524;BME280;53689;56.878;60.672;2023-01-25T10:49:39;98680.66;;;22.55;19.66
62524;BME280;53689;56.878;60.672;2023-01-25T10:52:12;98675.84;;;22.51;19.67
62524;BME280;53689;56.878;60.672;2023-01-25T10:54:41;98683.47;;;22.47;19.36
62524;BME280;53689;56.878;60.672;2023-01-25T10:57:12;98691.00;;;22.52;19.61
62524;BME280;53689;56.878;60.672;2023-01-25T10:59:43;98698.47;;;22.50;19.53
62524;BME280;53689;56.878;60.672;2023-01-25T11:02:39;98693.56;;;22.60;19.66
62524;BME280;53689;56.878;60.672;2023-01-25T11:05:27;98683.19;;;22.57;19.46
62524;BME280;53689;56.878;60.672;2023-01-25T11:07:56;98696.63;;;22.50;18.65
62524;BME280;53689;56.878;60.672;2023-01-25T11:10:29;98699.22;;;22.43;19.25
62524;BME280;53689;56.878;60.672;2023-01-25T11:13:20;98702.28;;;22.40;20.20
62524;BME280;53689;56.878;60.672;2023-01-25T11:15:51;98705.97;;;22.33;18.85
62524;BME280;53689;56.878;60.672;2023-01-25T11:18:22;98697.13;;;22.39;20.78
62524;BME280;53689;56.878;60.672;2023-01-25T11:21:04;98706.78;;;22.33;19.06
62524;BME280;53689;56.878;60.672;2023-01-25T11:23:33;98713.28;;;22.39;17.86
62524;BME280;53689;56.878;60.672;2023-01-25T11:26:14;98709.81;;;22.45;18.22
62524;BME280;53689;56.878;60.672;2023-01-25T11:28:43;98713.88;;;22.34;18.50
62524;BME280;53689;56.878;60.672;2023-01-25T11:31:13;98705.00;;;22.40;18.29
62524;BME280;53689;56.878;60.672;2023-01-25T11:33:43;98696.09;;;22.40;19.35
62524;BME280;53689;56.878;60.672;2023-01-25T11:36:21;98709.19;;;22.43;17.58
62524;BME280;53689;56.878;60.672;2023-01-25T11:39:07;98706.88;;;22.40;17.95
62524;BME280;53689;56.878;60.672;2023-01-25T11:41:49;98708.44;;;22.49;18.65
62524;BME280;53689;56.878;60.672;2023-01-25T11:44:45;98695.94;;;22.48;18.09
62524;BME280;53689;56.878;60.672;2023-01-25T11:47:22;98690.56;;;22.48;18.14
62524;BME280;53689;56.878;60.672;2023-01-25T11:49:58;98684.84;;;22.58;18.36
62524;BME280;53689;56.878;60.672;2023-01-25T11:52:34;98678.19;;;22.54;18.03
62524;BME280;53689;56.878;60.672;2023-01-25T11:55:17;98664.25;;;22.50;17.44
62524;BME280;53689;56.878;60.672;2023-01-25T11:58:02;98669.78;;;22.49;17.49
62524;BME280;53689;56.878;60.672;2023-01-25T12:00:46;98656.88;;;22.44;18.17
62524;BME280;53689;56.878;60.672;2023-01-25T12:03:45;98663.72;;;22.40;18.71
62524;BME280;53689;56.878;60.672;2023-01-25T12:06:21;98662.91;;;22.46;19.18
62524;BME280;53689;56.878;60.672;2023-01-25T12:09:14;98663.44;;;22.35;18.99
62524;BME280;53689;56.878;60.672;2023-01-25T12:15:05;98678.69;;;21.09;19.17
62524;BME280;53689;56.878;60.672;2023-01-25T12:17:46;98689.41;;;21.77;18.28
62524;BME280;53689;56.878;60.672;2023-01-25T12:20:37;98686.00;;;21.90;17.31
62524;BME280;53689;56.878;60.672;2023-01-25T12:23:18;98690.59;;;22.11;17.98
62524;BME280;53689;56.878;60.672;2023-01-25T12:26:03;98709.69;;;22.31;17.99
62524;BME280;53689;56.878;60.672;2023-01-25T12:28:36;98697.16;;;22.45;18.25
62524;BME280;53689;56.878;60.672;2023-01-25T12:31:13;98694.47;;;22.45;18.22
62524;BME280;53689;56.878;60.672;2023-01-25T12:33:47;98693.91;;;22.50;17.94
62524;BME280;53689;56.878;60.672;2023-01-25T12:36:20;98672.97;;;22.52;18.17
62524;BME280;53689;56.878;60.672;2023-01-25T12:38:56;98676.41;;;22.46;18.06
62524;BME280;53689;56.878;60.672;2023-01-25T12:41:32;98670.28;;;22.52;18.55
62524;BME280;53689;56.878;60.672;2023-01-25T12:44:07;98662.19;;;22.52;19.46
62524;BME280;53689;56.878;60.672;2023-01-25T12:46:42;98678.38;;;22.52;19.20
62524;BME280;53689;56.878;60.672;2023-01-25T12:49:19;98682.72;;;22.53;18.90
62524;BME280;53689;56.878;60.672;2023-01-25T12:51:52;98684.81;;;22.51;18.81
62524;BME280;53689;56.878;60.672;2023-01-25T12:54:24;98693.06;;;22.50;18.89
62524;BME280;53689;56.878;60.672;2023-01-25T12:57:01;98682.09;;;22.51;19.09
62524;BME280;53689;56.878;60.672;2023-01-25T12:59:37;98663.59;;;22.48;19.10
62524;BME280;53689;56.878;60.672;2023-01-25T13:02:21;98662.69;;;22.41;18.71
62524;BME280;53689;56.878;60.672;2023-01-25T13:05:00;98663.75;;;22.47;18.83
62524;BME280;53689;56.878;60.672;2023-01-25T13:07:34;98670.38;;;22.44;18.85
62524;BME280;53689;56.878;60.672;2023-01-25T13:10:13;98668.84;;;22.35;18.65
62524;BME280;53689;56.878;60.672;2023-01-25T13:12:53;98674.69;;;22.38;19.38
62524;BME280;53689;56.878;60.672;2023-01-25T13:15:37;98673.59;;;22.54;19.04
62524;BME280;53689;56.878;60.672;2023-01-25T13:18:37;98672.78;;;22.54;19.08
62524;BME280;53689;56.878;60.672;2023-01-25T13:21:09;98667.56;;;22.52;19.01